Time;durP1;ratioP1;P1;durP2;ratioP2;P2;SDS_P1;SDS_P2;PMS_P1;PMS_P2;Temp;Humidity;BMP_temperature;BMP_pressure;BME280_temperature;BME280_humidity;BME280_pressure;Samples;Min_cycle;Max_cycle;Signal;HPM_P1;HPM_P2
2023/05/29 00:02:12;;;;;;;9.17;4.13;;;;;;;;;;5010955;28;20214;-73
2023/05/29 00:04:37;;;;;;;5.40;3.83;;;;;;;;;;5009089;28;20183;-73
2023/05/29 00:07:03;;;;;;;7.57;3.90;;;;;;;;;;5006074;28;20232;-73
2023/05/29 00:09:29;;;;;;;5.23;4.37;;;;;;;;;;5010024;28;20186;-73
2023/05/29 00:11:54;;;;;;;4.80;3.43;;;;;;;;;;5010745;28;20225;-73
2023/05/29 00:14:20;;;;;;;5.77;3.87;;;;;;;;;;5011621;28;20179;-73
2023/05/29 00:16:46;;;;;;;6.90;4.07;;;;;;;;;;5010510;28;20175;-73
2023/05/29 00:19:12;;;;;;;5.47;3.80;;;;;;;;;;5012802;28;20181;-73
2023/05/29 00:21:37;;;;;;;10.30;4.43;;;;;;;;;;5010995;28;20254;-73
2023/05/29 00:24:02;;;;;;;9.33;3.77;;;;;;;;;;5010326;28;20187;-73
2023/05/29 00:26:27;;;;;;;6.27;4.23;;;;;;;;;;5012169;28;20187;-73
2023/05/29 00:28:53;;;;;;;6.03;4.20;;;;;;;;;;5009584;28;20183;-73
2023/05/29 00:31:18;;;;;;;9.47;3.93;;;;;;;;;;5010923;28;20245;-73
2023/05/29 00:33:43;;;;;;;6.00;4.00;;;;;;;;;;5007071;28;20182;-73
2023/05/29 00:36:08;;;;;;;6.13;3.87;;;;;;;;;;5008253;28;20231;-73
2023/05/29 00:38:33;;;;;;;7.67;3.90;;;;;;;;;;5009698;28;20206;-73
2023/05/29 00:40:59;;;;;;;4.67;4.13;;;;;;;;;;5009986;28;20175;-73
2023/05/29 00:43:24;;;;;;;6.77;3.87;;;;;;;;;;5008860;28;20248;-73
2023/05/29 00:45:50;;;;;;;6.10;4.03;;;;;;;;;;5009832;28;20188;-73
2023/05/29 00:48:15;;;;;;;6.47;3.87;;;;;;;;;;5008105;28;20190;-73
2023/05/29 00:50:41;;;;;;;7.67;4.40;;;;;;;;;;5013496;28;20207;-73
2023/05/29 00:53:07;;;;;;;7.73;3.77;;;;;;;;;;5013466;28;20205;-73
2023/05/29 00:55:33;;;;;;;6.10;3.93;;;;;;;;;;5014665;28;20221;-73
2023/05/29 00:57:59;;;;;;;4.50;3.80;;;;;;;;;;5016203;28;20182;-73
2023/05/29 01:00:24;;;;;;;6.40;4.37;;;;;;;;;;5022447;28;20176;-73
2023/05/29 01:02:49;;;;;;;6.70;4.00;;;;;;;;;;5014573;28;20198;-73
2023/05/29 01:05:15;;;;;;;5.80;4.50;;;;;;;;;;5013858;28;20185;-73
2023/05/29 01:07:41;;;;;;;4.63;3.60;;;;;;;;;;5009659;28;20180;-73
2023/05/29 01:10:07;;;;;;;4.07;3.37;;;;;;;;;;5020088;28;20216;-73
2023/05/29 01:12:50;;;;;;;6.47;4.33;;;;;;;;;;5013776;28;20280;-73
2023/05/29 01:15:28;;;;;;;5.10;4.10;;;;;;;;;;5020639;28;20187;-73
2023/05/29 01:17:56;;;;;;;5.37;4.00;;;;;;;;;;5014888;28;20312;-73
2023/05/29 01:20:26;;;;;;;3.77;3.23;;;;;;;;;;5014445;28;20186;-73
2023/05/29 01:22:52;;;;;;;6.60;4.20;;;;;;;;;;5017803;28;20267;-73
2023/05/29 01:25:21;;;;;;;5.30;4.27;;;;;;;;;;5014554;28;20323;-73
2023/05/29 01:27:47;;;;;;;5.03;3.57;;;;;;;;;;5019003;28;20188;-73
2023/05/29 01:30:14;;;;;;;5.10;4.00;;;;;;;;;;5013201;28;20186;-73
2023/05/29 01:32:40;;;;;;;4.33;3.70;;;;;;;;;;5016886;28;20209;-72
2023/05/29 01:35:06;;;;;;;5.80;4.00;;;;;;;;;;5024613;28;20186;-73
2023/05/29 01:37:31;;;;;;;4.30;3.90;;;;;;;;;;5013280;28;20181;-73
2023/05/29 01:39:56;;;;;;;6.53;4.13;;;;;;;;;;5011090;28;20186;-73
2023/05/29 01:42:22;;;;;;;4.77;3.93;;;;;;;;;;5011984;28;20209;-73
2023/05/29 01:44:47;;;;;;;6.07;4.23;;;;;;;;;;5012441;28;20180;-73
2023/05/29 01:47:13;;;;;;;4.23;3.77;;;;;;;;;;5016726;28;20179;-73
2023/05/29 01:49:39;;;;;;;4.70;3.63;;;;;;;;;;5015987;28;20283;-73
2023/05/29 01:52:04;;;;;;;5.63;4.33;;;;;;;;;;5029077;28;20212;-73
2023/05/29 01:54:29;;;;;;;5.30;3.23;;;;;;;;;;5017062;28;20218;-73
2023/05/29 01:56:55;;;;;;;5.13;3.50;;;;;;;;;;5017622;28;20269;-73
2023/05/29 01:59:21;;;;;;;6.53;3.93;;;;;;;;;;5012284;28;20188;-73
2023/05/29 02:01:47;;;;;;;4.47;3.60;;;;;;;;;;5014555;28;20276;-73
2023/05/29 02:04:12;;;;;;;5.67;3.93;;;;;;;;;;5013637;28;20202;-73
2023/05/29 02:06:38;;;;;;;5.17;3.80;;;;;;;;;;5013562;28;20208;-73
2023/05/29 02:09:03;;;;;;;4.33;3.33;;;;;;;;;;5016887;28;20184;-73
2023/05/29 02:11:28;;;;;;;4.10;3.17;;;;;;;;;;5019087;28;20208;-72
2023/05/29 02:13:54;;;;;;;5.70;3.83;;;;;;;;;;5015374;28;20258;-73
2023/05/29 02:16:20;;;;;;;6.13;4.60;;;;;;;;;;5015893;28;20204;-73
2023/05/29 02:18:45;;;;;;;4.37;3.67;;;;;;;;;;5019715;28;20175;-73
2023/05/29 02:21:11;;;;;;;4.80;3.87;;;;;;;;;;5017301;28;20187;-73
2023/05/29 02:23:36;;;;;;;5.80;4.20;;;;;;;;;;5018084;28;20202;-73
2023/05/29 02:26:01;;;;;;;4.23;3.03;;;;;;;;;;5017064;28;20191;-73
2023/05/29 02:28:26;;;;;;;4.93;3.17;;;;;;;;;;5017403;28;20176;-73
2023/05/29 02:30:52;;;;;;;4.80;4.10;;;;;;;;;;5011271;28;20187;-72
2023/05/29 02:33:17;;;;;;;5.50;3.83;;;;;;;;;;5015019;28;20226;-72
2023/05/29 02:35:42;;;;;;;4.07;3.23;;;;;;;;;;5010996;28;20257;-72
2023/05/29 02:38:07;;;;;;;6.07;3.47;;;;;;;;;;5026577;28;20177;-73
2023/05/29 02:40:33;;;;;;;4.97;3.70;;;;;;;;;;5017438;28;20179;-73
2023/05/29 02:42:58;;;;;;;4.93;3.40;;;;;;;;;;5011871;28;20184;-72
2023/05/29 02:45:23;;;;;;;5.93;4.10;;;;;;;;;;5012732;28;20249;-72
2023/05/29 02:47:48;;;;;;;7.33;4.10;;;;;;;;;;5009940;28;20180;-72
2023/05/29 02:50:14;;;;;;;7.47;3.70;;;;;;;;;;5011655;28;20185;-72
2023/05/29 02:52:40;;;;;;;5.87;3.80;;;;;;;;;;5017577;28;20206;-72
2023/05/29 02:55:06;;;;;;;5.73;4.30;;;;;;;;;;5012377;28;20210;-73
2023/05/29 02:57:32;;;;;;;5.07;3.80;;;;;;;;;;5019167;28;20258;-72
2023/05/29 02:59:57;;;;;;;5.07;4.03;;;;;;;;;;5009736;28;20187;-72
2023/05/29 03:02:22;;;;;;;5.97;4.80;;;;;;;;;;5021060;28;20195;-72
2023/05/29 03:04:50;;;;;;;5.07;3.90;;;;;;;;;;5014298;28;20230;-73
2023/05/29 03:07:15;;;;;;;5.10;3.47;;;;;;;;;;5015556;28;20189;-72
2023/05/29 03:09:41;;;;;;;5.23;3.70;;;;;;;;;;5013152;28;20183;-73
2023/05/29 03:12:06;;;;;;;5.43;4.17;;;;;;;;;;5020308;28;20199;-72
2023/05/29 03:14:35;;;;;;;3.97;3.43;;;;;;;;;;5009315;28;20191;-72
2023/05/29 03:17:05;;;;;;;4.40;3.33;;;;;;;;;;5014327;28;20182;-72
2023/05/29 03:19:30;;;;;;;6.70;3.80;;;;;;;;;;5026256;28;20344;-72
2023/05/29 03:21:55;;;;;;;5.87;4.00;;;;;;;;;;5016967;28;20265;-72
2023/05/29 03:24:20;;;;;;;5.53;3.70;;;;;;;;;;5009038;28;20179;-73
2023/05/29 03:26:46;;;;;;;5.17;3.63;;;;;;;;;;5018491;28;20188;-72
2023/05/29 03:29:11;;;;;;;7.53;3.87;;;;;;;;;;5012198;28;20186;-72
2023/05/29 03:31:36;;;;;;;5.67;3.60;;;;;;;;;;5010499;28;20199;-72
2023/05/29 03:34:01;;;;;;;7.50;4.90;;;;;;;;;;5012743;28;20185;-72
2023/05/29 03:36:27;;;;;;;7.37;3.57;;;;;;;;;;5010103;28;20187;-72
2023/05/29 03:38:52;;;;;;;7.67;4.10;;;;;;;;;;5009123;28;20177;-72
2023/05/29 03:41:17;;;;;;;19.93;4.80;;;;;;;;;;5010880;28;20176;-72
2023/05/29 03:43:42;;;;;;;6.33;4.27;;;;;;;;;;5007240;28;20255;-72
2023/05/29 03:46:08;;;;;;;4.47;3.93;;;;;;;;;;5007875;28;20178;-72
2023/05/29 03:48:33;;;;;;;5.10;3.47;;;;;;;;;;5008495;28;20212;-72
2023/05/29 03:50:58;;;;;;;5.73;3.90;;;;;;;;;;5009663;28;20189;-72
2023/05/29 03:53:23;;;;;;;5.77;4.00;;;;;;;;;;5014807;28;20208;-72
2023/05/29 03:55:48;;;;;;;7.67;4.07;;;;;;;;;;5023421;28;20257;-72
2023/05/29 03:58:14;;;;;;;5.57;3.83;;;;;;;;;;5052210;28;20265;-72
2023/05/29 04:00:39;;;;;;;6.77;4.20;;;;;;;;;;5033942;28;20206;-72
2023/05/29 04:03:04;;;;;;;6.53;4.20;;;;;;;;;;5049605;28;20207;-72
2023/05/29 04:05:30;;;;;;;4.73;3.87;;;;;;;;;;5039761;28;20240;-72
2023/05/29 04:07:56;;;;;;;5.57;3.50;;;;;;;;;;5038464;28;20184;-72
2023/05/29 04:10:21;;;;;;;5.77;4.17;;;;;;;;;;5052772;28;20212;-72
2023/05/29 04:12:46;;;;;;;6.90;3.90;;;;;;;;;;5042966;28;20218;-72
2023/05/29 04:15:11;;;;;;;5.57;3.67;;;;;;;;;;5047925;28;20183;-72
2023/05/29 04:17:37;;;;;;;5.97;4.00;;;;;;;;;;5031283;28;20259;-72
2023/05/29 04:20:07;;;;;;;10.53;4.30;;;;;;;;;;5029554;28;20199;-72
2023/05/29 04:22:33;;;;;;;7.40;4.03;;;;;;;;;;5032541;28;20234;-72
2023/05/29 04:24:58;;;;;;;11.87;4.00;;;;;;;;;;5032158;28;20183;-72
2023/05/29 04:27:23;;;;;;;6.90;4.77;;;;;;;;;;5050650;28;20262;-72
2023/05/29 04:29:48;;;;;;;4.70;4.07;;;;;;;;;;5036946;28;20188;-72
2023/05/29 04:32:13;;;;;;;6.87;4.00;;;;;;;;;;5030635;28;20207;-72
2023/05/29 04:34:39;;;;;;;6.50;3.97;;;;;;;;;;5033074;28;20176;-72
2023/05/29 04:37:04;;;;;;;4.97;3.93;;;;;;;;;;5053426;28;20176;-72
2023/05/29 04:39:30;;;;;;;5.80;3.70;;;;;;;;;;5032160;28;20180;-72
2023/05/29 04:41:58;;;;;;;4.97;3.80;;;;;;;;;;5039536;28;20188;-72
2023/05/29 04:44:25;;;;;;;5.57;3.97;;;;;;;;;;5043818;28;20191;-72
2023/05/29 04:46:51;;;;;;;5.27;3.63;;;;;;;;;;5026517;28;20198;-72
2023/05/29 04:49:17;;;;;;;7.50;3.97;;;;;;;;;;5032953;28;20185;-72
2023/05/29 04:51:42;;;;;;;5.67;3.83;;;;;;;;;;5047569;28;20199;-72
2023/05/29 04:54:08;;;;;;;5.03;3.60;;;;;;;;;;5033296;28;20251;-72
2023/05/29 04:56:34;;;;;;;6.77;4.27;;;;;;;;;;5048585;28;20243;-72
2023/05/29 04:58:59;;;;;;;5.30;3.70;;;;;;;;;;5040722;28;20179;-72
2023/05/29 05:01:25;;;;;;;5.40;3.90;;;;;;;;;;5043883;28;20177;-72
2023/05/29 05:03:50;;;;;;;7.33;4.13;;;;;;;;;;5024866;28;20200;-72
2023/05/29 05:06:16;;;;;;;4.90;4.13;;;;;;;;;;5029866;28;20195;-73
2023/05/29 05:08:42;;;;;;;5.93;4.30;;;;;;;;;;5031813;28;20260;-72
2023/05/29 05:11:07;;;;;;;5.50;4.57;;;;;;;;;;5040818;28;20172;-72
2023/05/29 05:13:32;;;;;;;5.30;4.17;;;;;;;;;;5049659;28;20207;-72
2023/05/29 05:15:57;;;;;;;5.97;4.63;;;;;;;;;;5031089;28;20182;-73
2023/05/29 05:18:22;;;;;;;6.80;3.77;;;;;;;;;;5032012;28;20185;-72
2023/05/29 05:20:47;;;;;;;5.47;3.87;;;;;;;;;;5030844;28;20183;-72
2023/05/29 05:23:13;;;;;;;6.13;4.23;;;;;;;;;;5024648;28;20181;-72
2023/05/29 05:25:38;;;;;;;4.73;3.77;;;;;;;;;;5036631;28;20272;-72
2023/05/29 05:28:04;;;;;;;5.57;4.10;;;;;;;;;;5049213;28;20177;-72
2023/05/29 05:30:29;;;;;;;8.40;3.90;;;;;;;;;;5036074;28;20232;-72
2023/05/29 05:32:55;;;;;;;5.47;4.00;;;;;;;;;;5047908;28;20214;-72
2023/05/29 05:35:20;;;;;;;4.40;3.63;;;;;;;;;;5045980;28;20247;-72
2023/05/29 05:37:46;;;;;;;10.40;4.63;;;;;;;;;;5034579;28;20215;-72
2023/05/29 05:40:11;;;;;;;5.90;4.07;;;;;;;;;;5034273;28;20174;-72
2023/05/29 05:42:37;;;;;;;14.33;5.57;;;;;;;;;;5036509;28;20189;-73
2023/05/29 05:45:02;;;;;;;4.37;3.60;;;;;;;;;;5032880;28;20208;-73
2023/05/29 05:47:28;;;;;;;5.77;4.00;;;;;;;;;;5052851;28;20267;-73
2023/05/29 05:49:54;;;;;;;6.77;4.10;;;;;;;;;;5036111;28;20183;-73
2023/05/29 05:52:19;;;;;;;6.43;3.73;;;;;;;;;;5034590;28;20198;-73
2023/05/29 05:54:44;;;;;;;5.50;4.00;;;;;;;;;;5054512;28;20234;-73
2023/05/29 05:57:10;;;;;;;8.63;4.20;;;;;;;;;;5055686;28;20217;-73
2023/05/29 05:59:35;;;;;;;5.73;3.97;;;;;;;;;;5051939;28;20175;-73
2023/05/29 06:02:01;;;;;;;4.90;3.60;;;;;;;;;;5034485;28;20182;-73
2023/05/29 06:04:26;;;;;;;5.50;3.70;;;;;;;;;;5038298;28;20187;-73
2023/05/29 06:06:51;;;;;;;5.80;4.23;;;;;;;;;;5041639;28;20240;-73
2023/05/29 06:09:17;;;;;;;4.70;3.93;;;;;;;;;;5052550;28;20179;-73
2023/05/29 06:11:42;;;;;;;6.00;3.77;;;;;;;;;;5049895;28;20179;-73
2023/05/29 06:14:07;;;;;;;6.60;3.97;;;;;;;;;;5035826;28;20249;-73
2023/05/29 06:16:32;;;;;;;4.63;3.67;;;;;;;;;;5042957;28;20202;-73
2023/05/29 06:18:58;;;;;;;4.43;4.00;;;;;;;;;;5046705;28;20202;-73
2023/05/29 06:21:23;;;;;;;4.23;3.30;;;;;;;;;;5034129;28;20182;-73
2023/05/29 06:23:48;;;;;;;6.00;4.00;;;;;;;;;;5036700;28;20189;-73
2023/05/29 06:26:15;;;;;;;5.27;4.00;;;;;;;;;;5039415;28;20175;-73
2023/05/29 06:28:40;;;;;;;3.87;3.47;;;;;;;;;;5032155;28;20178;-73
2023/05/29 06:31:06;;;;;;;7.40;4.63;;;;;;;;;;5047503;28;20179;-73
2023/05/29 06:33:31;;;;;;;5.47;4.27;;;;;;;;;;5035392;28;20528;-73
2023/05/29 06:35:56;;;;;;;9.17;4.73;;;;;;;;;;5031377;28;20186;-73
2023/05/29 06:38:22;;;;;;;8.43;4.23;;;;;;;;;;5038317;28;20178;-73
2023/05/29 06:40:47;;;;;;;6.87;3.70;;;;;;;;;;5051150;28;20263;-73
2023/05/29 06:43:12;;;;;;;6.73;4.20;;;;;;;;;;5050549;28;20265;-73
2023/05/29 06:45:37;;;;;;;4.07;3.67;;;;;;;;;;5033187;28;20187;-73
2023/05/29 06:48:03;;;;;;;6.63;4.03;;;;;;;;;;5037191;28;20181;-73
2023/05/29 06:50:28;;;;;;;6.27;4.33;;;;;;;;;;5050554;28;20184;-73
2023/05/29 06:52:53;;;;;;;5.27;3.63;;;;;;;;;;5035871;28;20260;-73
2023/05/29 06:55:19;;;;;;;5.83;3.80;;;;;;;;;;5051985;28;20217;-73
2023/05/29 06:57:45;;;;;;;5.10;3.80;;;;;;;;;;5050748;28;20177;-73
2023/05/29 07:00:10;;;;;;;4.60;3.87;;;;;;;;;;5034313;28;20188;-73
2023/05/29 07:02:36;;;;;;;7.33;4.07;;;;;;;;;;5044692;28;20209;-73
2023/05/29 07:05:01;;;;;;;11.03;4.00;;;;;;;;;;5028225;28;20189;-73
2023/05/29 07:07:26;;;;;;;5.07;3.60;;;;;;;;;;5046577;28;20195;-73
2023/05/29 07:09:51;;;;;;;8.17;3.73;;;;;;;;;;5032726;28;20195;-73
2023/05/29 07:12:17;;;;;;;6.33;4.40;;;;;;;;;;5047375;28;20204;-73
2023/05/29 07:14:42;;;;;;;6.87;3.93;;;;;;;;;;5050746;28;20196;-73
2023/05/29 07:17:07;;;;;;;5.03;4.13;;;;;;;;;;5051540;28;20174;-73
2023/05/29 07:19:33;;;;;;;4.83;4.00;;;;;;;;;;5049611;28;20213;-73
2023/05/29 07:21:59;;;;;;;5.43;3.43;;;;;;;;;;5032349;28;20198;-73
2023/05/29 07:24:24;;;;;;;4.83;3.90;;;;;;;;;;5048959;28;20193;-73
2023/05/29 07:26:49;;;;;;;10.63;4.03;;;;;;;;;;5033886;28;20181;-73
2023/05/29 07:29:16;;;;;;;6.53;4.50;;;;;;;;;;5041825;28;20290;-73
2023/05/29 07:31:42;;;;;;;6.83;4.17;;;;;;;;;;5037997;28;20312;-73
2023/05/29 07:34:07;;;;;;;7.07;3.90;;;;;;;;;;5037410;28;20205;-73
2023/05/29 07:36:32;;;;;;;8.33;4.80;;;;;;;;;;5043355;28;20189;-73
2023/05/29 07:38:58;;;;;;;8.17;4.40;;;;;;;;;;5032290;28;20181;-73
2023/05/29 07:41:23;;;;;;;7.17;4.33;;;;;;;;;;5030859;28;20174;-73
2023/05/29 07:43:51;;;;;;;6.23;4.57;;;;;;;;;;5048908;28;20197;-73
2023/05/29 07:46:17;;;;;;;6.97;4.13;;;;;;;;;;5033246;28;20218;-73
2023/05/29 07:48:42;;;;;;;6.50;3.93;;;;;;;;;;5050872;28;20223;-73
2023/05/29 07:51:09;;;;;;;5.60;4.53;;;;;;;;;;5049971;28;20230;-73
2023/05/29 07:53:35;;;;;;;7.40;4.50;;;;;;;;;;5032853;28;20226;-74
2023/05/29 07:56:00;;;;;;;6.40;4.20;;;;;;;;;;5025164;28;20257;-73
2023/05/29 07:58:26;;;;;;;6.53;4.93;;;;;;;;;;5024298;28;20197;-73
2023/05/29 08:00:51;;;;;;;6.33;3.70;;;;;;;;;;5028059;28;20256;-73
2023/05/29 08:03:17;;;;;;;6.67;4.30;;;;;;;;;;5027917;28;20205;-73
2023/05/29 08:05:42;;;;;;;11.70;4.73;;;;;;;;;;5029583;28;20236;-74
2023/05/29 08:08:07;;;;;;;7.87;4.60;;;;;;;;;;5029818;28;20195;-73
2023/05/29 08:10:33;;;;;;;5.73;4.57;;;;;;;;;;5026270;28;20212;-74
2023/05/29 08:12:58;;;;;;;6.73;4.07;;;;;;;;;;5029597;28;20195;-73
2023/05/29 08:15:24;;;;;;;7.50;4.20;;;;;;;;;;5026798;28;20182;-74
2023/05/29 08:17:49;;;;;;;6.93;4.13;;;;;;;;;;5027769;28;20206;-73
2023/05/29 08:20:14;;;;;;;9.63;4.90;;;;;;;;;;5028930;28;20242;-74
2023/05/29 08:22:39;;;;;;;5.23;4.43;;;;;;;;;;5030427;28;20188;-74
2023/05/29 08:25:05;;;;;;;5.37;4.17;;;;;;;;;;5029480;28;20177;-74
2023/05/29 08:27:30;;;;;;;4.60;4.10;;;;;;;;;;5028068;28;20172;-74
2023/05/29 08:29:56;;;;;;;4.53;3.77;;;;;;;;;;5027529;28;20181;-74
2023/05/29 08:32:21;;;;;;;4.90;4.10;;;;;;;;;;5025676;28;20198;-74
2023/05/29 08:34:46;;;;;;;5.77;4.37;;;;;;;;;;5029393;28;20171;-74
2023/05/29 08:37:12;;;;;;;9.00;4.30;;;;;;;;;;5025996;28;20242;-74
2023/05/29 08:39:37;;;;;;;7.63;4.50;;;;;;;;;;5029297;28;20266;-74
2023/05/29 08:42:07;;;;;;;7.20;5.03;;;;;;;;;;5024228;28;20188;-74
2023/05/29 08:44:33;;;;;;;6.47;5.07;;;;;;;;;;5022909;28;20281;-74
2023/05/29 08:47:00;;;;;;;5.33;4.37;;;;;;;;;;5028017;28;20275;-74
2023/05/29 08:49:27;;;;;;;8.07;4.33;;;;;;;;;;5027595;28;20239;-74
2023/05/29 08:51:57;;;;;;;4.40;4.00;;;;;;;;;;5030397;28;20210;-74
2023/05/29 08:54:22;;;;;;;8.33;5.20;;;;;;;;;;5027696;28;20374;-73
2023/05/29 08:56:48;;;;;;;8.37;4.33;;;;;;;;;;5036682;28;20264;-74
2023/05/29 08:59:13;;;;;;;6.97;5.00;;;;;;;;;;5032328;28;20284;-74
2023/05/29 09:01:40;;;;;;;17.23;5.27;;;;;;;;;;5047966;28;20173;-74
2023/05/29 09:04:05;;;;;;;7.77;5.13;;;;;;;;;;5031256;28;20197;-74
2023/05/29 09:06:30;;;;;;;11.03;5.40;;;;;;;;;;5050179;28;20180;-74
2023/05/29 09:08:57;;;;;;;5.83;4.83;;;;;;;;;;5049939;28;20231;-74
2023/05/29 09:11:22;;;;;;;4.90;4.40;;;;;;;;;;5037096;28;20197;-74
2023/05/29 09:13:47;;;;;;;6.40;4.70;;;;;;;;;;5052877;28;20247;-74
2023/05/29 09:16:13;;;;;;;7.50;4.83;;;;;;;;;;5054371;28;20170;-74
2023/05/29 09:18:38;;;;;;;5.93;4.47;;;;;;;;;;5047936;28;20182;-74
2023/05/29 09:21:10;;;;;;;8.27;4.70;;;;;;;;;;5031016;28;20171;-74
2023/05/29 09:23:35;;;;;;;9.13;3.97;;;;;;;;;;5035080;28;20261;-74
2023/05/29 09:26:02;;;;;;;5.32;3.83;;;;;;;;;;5035190;28;20270;-74
2023/05/29 09:28:30;;;;;;;5.88;4.55;;;;;;;;;;5053785;28;20200;-74
2023/05/29 09:30:56;;;;;;;11.70;4.93;;;;;;;;;;5036213;28;20174;-74
2023/05/29 09:33:21;;;;;;;7.32;4.70;;;;;;;;;;5035454;28;20212;-74
2023/05/29 09:35:47;;;;;;;6.70;4.75;;;;;;;;;;5033016;28;20239;-74
2023/05/29 09:38:16;;;;;;;7.70;4.82;;;;;;;;;;5055095;28;20208;-74
2023/05/29 09:40:42;;;;;;;13.97;5.07;;;;;;;;;;5052069;28;20189;-74
2023/05/29 09:43:17;;;;;;;7.85;4.75;;;;;;;;;;5035256;28;20179;-74
2023/05/29 09:45:43;;;;;;;7.03;4.90;;;;;;;;;;5052004;28;20189;-74
2023/05/29 09:48:12;;;;;;;6.07;4.72;;;;;;;;;;5031541;28;20167;-74
2023/05/29 09:50:37;;;;;;;7.32;5.20;;;;;;;;;;5049073;28;20197;-74
2023/05/29 09:53:03;;;;;;;8.20;4.43;;;;;;;;;;5039685;28;20190;-74
2023/05/29 09:55:31;;;;;;;6.68;4.57;;;;;;;;;;5034727;28;20209;-74
2023/05/29 09:57:57;;;;;;;6.68;4.30;;;;;;;;;;5036256;28;20220;-74
2023/05/29 10:00:23;;;;;;;5.38;4.28;;;;;;;;;;5035202;28;20186;-74
2023/05/29 10:02:48;;;;;;;5.72;4.72;;;;;;;;;;5050231;28;20197;-74
2023/05/29 10:05:15;;;;;;;10.38;4.65;;;;;;;;;;5051930;28;20179;-74
2023/05/29 10:07:43;;;;;;;7.43;4.90;;;;;;;;;;5035672;28;20239;-74
2023/05/29 10:10:10;;;;;;;7.35;5.05;;;;;;;;;;5030872;28;20178;-80
2023/05/29 10:12:38;;;;;;;7.20;4.63;;;;;;;;;;5033292;28;20339;-76
2023/05/29 10:15:05;;;;;;;9.60;4.57;;;;;;;;;;5035056;28;20202;-71
2023/05/29 10:17:32;;;;;;;6.10;4.20;;;;;;;;;;5052794;28;20178;-72
2023/05/29 10:19:58;;;;;;;8.38;4.30;;;;;;;;;;5052261;28;20221;-72
2023/05/29 10:22:25;;;;;;;5.47;4.32;;;;;;;;;;5041663;28;20181;-72
2023/05/29 10:24:50;;;;;;;6.78;4.53;;;;;;;;;;5032574;28;20250;-72
2023/05/29 10:27:15;;;;;;;5.57;4.00;;;;;;;;;;5035274;28;20273;-72
2023/05/29 10:29:57;;;;;;;6.60;4.47;;;;;;;;;;5043709;28;20210;-71
2023/05/29 10:32:44;;;;;;;7.05;4.72;;;;;;;;;;5050478;28;20340;-72
2023/05/29 10:35:22;;;;;;;6.35;4.53;;;;;;;;;;5034211;28;20174;-71
2023/05/29 10:37:52;;;;;;;4.63;4.22;;;;;;;;;;5050888;28;20178;-71
2023/05/29 10:40:25;;;;;;;7.45;4.63;;;;;;;;;;5047297;28;20190;-72
2023/05/29 10:42:57;;;;;;;5.07;4.05;;;;;;;;;;5048632;28;20281;-71
2023/05/29 10:45:28;;;;;;;6.60;4.47;;;;;;;;;;5030993;28;20272;-72
2023/05/29 10:47:54;;;;;;;5.70;4.50;;;;;;;;;;5031303;28;20190;-72
2023/05/29 10:50:38;;;;;;;5.57;3.92;;;;;;;;;;5049580;28;20186;-72
2023/05/29 10:53:06;;;;;;;5.00;4.50;;;;;;;;;;5050220;28;20193;-71
2023/05/29 10:55:35;;;;;;;5.90;4.40;;;;;;;;;;5052375;28;20253;-72
2023/05/29 10:58:04;;;;;;;11.55;3.70;;;;;;;;;;5050781;28;20185;-72
2023/05/29 11:00:29;;;;;;;17.48;5.13;;;;;;;;;;5048362;28;20229;-71
2023/05/29 11:02:55;;;;;;;5.70;4.00;;;;;;;;;;5050671;28;20298;-71
2023/05/29 11:05:24;;;;;;;7.55;3.78;;;;;;;;;;5050228;28;20178;-72
2023/05/29 11:07:56;;;;;;;5.45;4.53;;;;;;;;;;5045256;28;20181;-72
2023/05/29 11:10:42;;;;;;;5.38;4.10;;;;;;;;;;5051023;28;20170;-71
2023/05/29 11:13:07;;;;;;;6.15;4.18;;;;;;;;;;5019937;28;20214;-71
2023/05/29 11:15:33;;;;;;;9.15;4.05;;;;;;;;;;5032139;28;20201;-72
2023/05/29 11:18:05;;;;;;;6.38;4.70;;;;;;;;;;5044534;28;20219;-72
2023/05/29 11:20:41;;;;;;;5.15;3.67;;;;;;;;;;5050640;28;20186;-72
2023/05/29 11:23:12;;;;;;;7.00;3.60;;;;;;;;;;5041496;28;20189;-72
2023/05/29 11:25:37;;;;;;;5.47;4.00;;;;;;;;;;5049737;28;20186;-72
2023/05/29 11:28:07;;;;;;;5.97;4.70;;;;;;;;;;5035239;28;20193;-72
2023/05/29 11:30:40;;;;;;;8.27;5.28;;;;;;;;;;5051507;28;20181;-72
2023/05/29 11:33:08;;;;;;;8.85;4.78;;;;;;;;;;5048421;28;20217;-72
2023/05/29 11:35:34;;;;;;;8.80;5.38;;;;;;;;;;5032024;28;20185;-72
2023/05/29 11:38:00;;;;;;;6.53;4.80;;;;;;;;;;5033707;28;20186;-72
2023/05/29 11:40:25;;;;;;;9.30;5.57;;;;;;;;;;5050811;28;20202;-72
2023/05/29 11:42:51;;;;;;;6.07;5.20;;;;;;;;;;5031184;28;20196;-72
2023/05/29 11:45:18;;;;;;;5.68;4.60;;;;;;;;;;5050502;28;20273;-72
2023/05/29 11:47:54;;;;;;;4.97;4.28;;;;;;;;;;5031843;28;20250;-71
2023/05/29 11:50:23;;;;;;;7.47;4.45;;;;;;;;;;5033001;28;20192;-71
2023/05/29 11:52:48;;;;;;;6.68;4.47;;;;;;;;;;5048590;28;20244;-71
2023/05/29 11:55:13;;;;;;;5.05;4.47;;;;;;;;;;5031400;28;20182;-72
2023/05/29 11:57:39;;;;;;;6.55;4.07;;;;;;;;;;5049513;28;20202;-71
2023/05/29 12:00:07;;;;;;;4.50;3.78;;;;;;;;;;5027966;28;20982;-71
2023/05/29 12:02:32;;;;;;;8.23;5.43;;;;;;;;;;5048653;28;20198;-72
2023/05/29 12:05:01;;;;;;;6.10;3.83;;;;;;;;;;5042652;28;20186;-71
2023/05/29 12:07:26;;;;;;;6.07;4.30;;;;;;;;;;5035961;28;20277;-71
2023/05/29 12:09:57;;;;;;;5.95;4.00;;;;;;;;;;5032050;28;20277;-72
2023/05/29 12:12:22;;;;;;;5.60;4.25;;;;;;;;;;5037793;28;20213;-72
2023/05/29 12:14:50;;;;;;;9.30;4.55;;;;;;;;;;5048418;28;20175;-71
2023/05/29 12:17:15;;;;;;;5.55;4.05;;;;;;;;;;5032657;28;20217;-72
2023/05/29 12:19:40;;;;;;;5.32;3.55;;;;;;;;;;5037024;28;20217;-71
2023/05/29 12:22:06;;;;;;;4.80;3.72;;;;;;;;;;5033559;28;20231;-72
2023/05/29 12:24:31;;;;;;;33.47;6.50;;;;;;;;;;5047130;28;20186;-72
2023/05/29 12:26:57;;;;;;;4.38;3.97;;;;;;;;;;5046859;28;20270;-71
2023/05/29 12:29:29;;;;;;;5.25;4.32;;;;;;;;;;5049242;28;20242;-72
2023/05/29 12:31:58;;;;;;;6.45;4.07;;;;;;;;;;5031322;28;20178;-72
2023/05/29 12:34:23;;;;;;;7.40;4.15;;;;;;;;;;5031099;28;20182;-71
2023/05/29 12:36:49;;;;;;;5.43;3.75;;;;;;;;;;5039343;28;20197;-72
2023/05/29 12:39:14;;;;;;;9.48;4.75;;;;;;;;;;5028258;28;20188;-72
2023/05/29 12:41:39;;;;;;;4.22;3.83;;;;;;;;;;5047208;28;20186;-72
2023/05/29 12:44:05;;;;;;;4.20;3.72;;;;;;;;;;5047859;28;20235;-71
2023/05/29 12:46:42;;;;;;;8.70;4.03;;;;;;;;;;5047043;28;20212;-72
2023/05/29 12:49:15;;;;;;;6.05;4.05;;;;;;;;;;5046080;28;20176;-72
2023/05/29 12:51:41;;;;;;;8.35;4.13;;;;;;;;;;5040695;28;20217;-72
2023/05/29 12:54:06;;;;;;;4.55;3.47;;;;;;;;;;5037175;28;20197;-72
2023/05/29 12:56:31;;;;;;;7.40;4.30;;;;;;;;;;5053250;28;20234;-72
2023/05/29 12:58:57;;;;;;;5.72;4.30;;;;;;;;;;5031338;28;20214;-72
2023/05/29 13:01:23;;;;;;;4.65;3.63;;;;;;;;;;5052043;28;20188;-72
2023/05/29 13:03:49;;;;;;;8.32;4.68;;;;;;;;;;5052521;28;20263;-72
2023/05/29 13:06:15;;;;;;;5.30;3.83;;;;;;;;;;5054265;28;20178;-72
2023/05/29 13:08:40;;;;;;;3.97;3.63;;;;;;;;;;5052781;28;20212;-72
2023/05/29 13:11:05;;;;;;;3.65;3.25;;;;;;;;;;5053729;28;20177;-72
2023/05/29 13:13:30;;;;;;;6.60;4.18;;;;;;;;;;5037647;28;20252;-72
2023/05/29 13:15:55;;;;;;;5.32;3.78;;;;;;;;;;5050051;28;20206;-71
2023/05/29 13:18:21;;;;;;;6.45;3.58;;;;;;;;;;5051828;28;20198;-72
2023/05/29 13:20:47;;;;;;;6.15;3.78;;;;;;;;;;5051649;28;20174;-72
2023/05/29 13:23:12;;;;;;;23.73;5.53;;;;;;;;;;5046430;28;20220;-72
2023/05/29 13:25:37;;;;;;;7.88;4.10;;;;;;;;;;5052493;28;20190;-72
2023/05/29 13:28:02;;;;;;;16.85;4.60;;;;;;;;;;5052142;28;20180;-72
2023/05/29 13:30:27;;;;;;;5.57;4.05;;;;;;;;;;5038937;28;20182;-72
2023/05/29 13:32:53;;;;;;;5.38;3.38;;;;;;;;;;5048855;28;20201;-72
2023/05/29 13:35:18;;;;;;;4.45;3.67;;;;;;;;;;5052874;28;20206;-72
2023/05/29 13:37:44;;;;;;;7.35;3.58;;;;;;;;;;5038450;28;20273;-72
2023/05/29 13:40:09;;;;;;;3.40;3.10;;;;;;;;;;5052571;28;20189;-71
2023/05/29 13:42:35;;;;;;;5.05;4.03;;;;;;;;;;5052599;28;20181;-72
2023/05/29 13:45:00;;;;;;;8.23;3.60;;;;;;;;;;5049800;28;20189;-72
2023/05/29 13:47:28;;;;;;;5.38;3.42;;;;;;;;;;5050625;28;20188;-72
2023/05/29 13:49:54;;;;;;;6.80;3.30;;;;;;;;;;5050430;28;20182;-71
2023/05/29 13:52:19;;;;;;;4.18;3.42;;;;;;;;;;5051743;28;20213;-72
2023/05/29 13:54:44;;;;;;;3.67;3.20;;;;;;;;;;5037324;28;20173;-72
2023/05/29 13:57:09;;;;;;;5.97;3.50;;;;;;;;;;5052738;28;20218;-72
2023/05/29 13:59:35;;;;;;;7.57;4.20;;;;;;;;;;5049418;28;20186;-72
2023/05/29 14:02:01;;;;;;;7.70;3.50;;;;;;;;;;5037420;28;20182;-72
2023/05/29 14:04:26;;;;;;;4.03;3.28;;;;;;;;;;5052437;28;20186;-72
2023/05/29 14:06:52;;;;;;;3.70;3.35;;;;;;;;;;5049368;28;20181;-72
2023/05/29 14:09:22;;;;;;;5.05;3.90;;;;;;;;;;5033010;28;20185;-72
2023/05/29 14:11:47;;;;;;;10.85;3.63;;;;;;;;;;5034345;28;20178;-71
2023/05/29 14:14:12;;;;;;;9.80;3.75;;;;;;;;;;5034162;28;20209;-71
2023/05/29 14:16:37;;;;;;;3.27;2.97;;;;;;;;;;5051074;28;20206;-72
2023/05/29 14:19:03;;;;;;;4.55;3.53;;;;;;;;;;5035308;28;20407;-71
2023/05/29 14:21:28;;;;;;;5.45;3.47;;;;;;;;;;5051583;28;20186;-72
2023/05/29 14:23:53;;;;;;;4.68;3.42;;;;;;;;;;5050549;28;20230;-72
2023/05/29 14:26:18;;;;;;;4.93;3.43;;;;;;;;;;5047221;28;20179;-72
2023/05/29 14:28:44;;;;;;;8.68;3.95;;;;;;;;;;5033936;28;20419;-72
2023/05/29 14:31:09;;;;;;;3.92;3.33;;;;;;;;;;5033148;28;20178;-72
2023/05/29 14:33:36;;;;;;;5.72;3.63;;;;;;;;;;5033661;28;20248;-72
2023/05/29 14:36:01;;;;;;;5.55;4.22;;;;;;;;;;5043976;28;20257;-72
2023/05/29 14:38:27;;;;;;;3.92;3.20;;;;;;;;;;5047524;28;20254;-71